createdAt,value
2023-05-11T06:03:42.212Z,99028.3
2023-05-11T06:09:15.823Z,99036
2023-05-11T06:14:51.942Z,99016.2
2023-05-11T06:20:27.643Z,99021.8
2023-05-11T06:26:03.480Z,99020
2023-05-11T06:31:39.421Z,99021.9
2023-05-11T06:37:16.246Z,99026
2023-05-11T06:42:52.392Z,99029.9
2023-05-11T06:48:29.380Z,99029
2023-05-11T06:54:06.225Z,99029.1
2023-05-11T06:59:41.359Z,99031.3
2023-05-11T07:05:17.137Z,99029.1
2023-05-11T07:10:53.287Z,99036.2
2023-05-11T07:16:30.852Z,99028.8
2023-05-11T07:22:07.303Z,99035.2
2023-05-11T07:27:43.794Z,99035
2023-05-11T07:33:20.794Z,99037.9
2023-05-11T07:38:56.275Z,99035
2023-05-11T07:44:32.198Z,99025.6
2023-05-11T07:50:08.039Z,99029.8
2023-05-11T07:55:44.523Z,99028.5
2023-05-11T08:01:42.091Z,99024.9
2023-05-11T08:07:17.474Z,99025.3
2023-05-11T08:12:54.046Z,99026.3
2023-05-11T08:18:30.313Z,99028
2023-05-11T08:24:08.195Z,99023.3
2023-05-11T08:29:43.515Z,99018.6
2023-05-11T08:35:20.169Z,99010.7
2023-05-11T08:40:57.454Z,99007.5
2023-05-11T08:46:32.716Z,99007.6
2023-05-11T08:52:31.694Z,99007.8
2023-05-11T08:58:12.240Z,99000
2023-05-11T09:04:09.580Z,99001.7
2023-05-11T09:09:46.114Z,99001
2023-05-11T09:15:24.039Z,99001.7
2023-05-11T09:21:00.305Z,99003.4
2023-05-11T09:26:37.134Z,99010.3
2023-05-11T09:32:18.683Z,99003.3
2023-05-11T09:38:10.975Z,98995
2023-05-11T09:43:47.190Z,98990.4
2023-05-11T09:49:23.444Z,98992.9
2023-05-11T09:54:59.584Z,98975.7
2023-05-11T10:00:56.762Z,98966.2
2023-05-11T10:06:30.345Z,98956.2
2023-05-11T10:12:06.600Z,98947.2
2023-05-11T10:17:42.238Z,98939.3
2023-05-11T10:23:17.873Z,98937.4
2023-05-11T10:28:53.312Z,98933.3
2023-05-11T10:34:30.776Z,98924.3
2023-05-11T10:40:07.464Z,98920.5
2023-05-11T10:45:42.495Z,98918.1
2023-05-11T10:51:25.465Z,98910.4
2023-05-11T10:57:09.702Z,98911.7
2023-05-11T11:03:07.425Z,98909.3
2023-05-11T11:08:42.108Z,98904.3
2023-05-11T11:14:17.859Z,98894.8
2023-05-11T11:19:53.619Z,98895.2
2023-05-11T11:25:29.407Z,98884.4
2023-05-11T11:31:05.823Z,98885.2
2023-05-11T11:36:43.214Z,98911.1
2023-05-11T11:42:21.651Z,98940.5
2023-05-11T11:47:59.526Z,98951.1
2023-05-11T11:53:38.735Z,98952.9
2023-05-11T11:59:15.964Z,98960.6
2023-05-11T12:04:57.930Z,98962.6
2023-05-11T12:10:33.894Z,98956.5
2023-05-11T12:16:10.806Z,98956.4
2023-05-11T12:21:47.410Z,98943.8
2023-05-11T12:27:23.383Z,98937.1
2023-05-11T12:33:06.151Z,98933.8
2023-05-11T12:38:42.717Z,98920.3
2023-05-11T12:44:18.432Z,98914.1
2023-05-11T12:49:55.210Z,98912.3
2023-05-11T12:55:30.974Z,98900.5
2023-05-11T13:01:29.066Z,98896.1
2023-05-11T13:07:02.948Z,98890.6
2023-05-11T13:12:38.771Z,98889.4
2023-05-11T13:18:17.324Z,98881.5
2023-05-11T13:23:53.436Z,98879.3
2023-05-11T13:29:29.972Z,98865.1
2023-05-11T13:35:05.561Z,98862.7
2023-05-11T13:40:41.057Z,98875.2
2023-05-11T13:46:17.682Z,98878.1
2023-05-11T13:51:55.957Z,98865.2
2023-05-11T13:57:35.504Z,98858.3
2023-05-11T14:03:13.114Z,98851.3
2023-05-11T14:08:55.872Z,98841.1
2023-05-11T14:14:31.572Z,98826.7
2023-05-11T14:20:07.121Z,98816.1
2023-05-11T14:25:42.595Z,98813
2023-05-11T14:31:18.500Z,98800.8
2023-05-11T14:36:55.298Z,98793.7
2023-05-11T14:42:30.118Z,98778.1
2023-05-11T14:48:05.468Z,98779.7
2023-05-11T14:53:42.720Z,98776.5
2023-05-11T14:59:19.393Z,98774.6
2023-05-11T15:04:59.186Z,98781.9
2023-05-11T15:10:34.952Z,98777.7
2023-05-11T15:16:10.316Z,98777.2
2023-05-11T15:21:47.347Z,98770.9
2023-05-11T15:27:24.336Z,98766.3
2023-05-11T15:33:00.311Z,98760.8
2023-05-11T15:38:36.777Z,98751.4
2023-05-11T15:44:12.399Z,98758.9
2023-05-11T15:49:47.451Z,98753.3
2023-05-11T15:55:24.738Z,98742.6
2023-05-11T16:01:00.913Z,98740.4
2023-05-11T16:06:36.697Z,98743.9
2023-05-11T16:12:12.174Z,98747.4
2023-05-11T16:17:49.465Z,98752.2
2023-05-11T16:23:25.864Z,98753.6
2023-05-11T16:29:04.431Z,98761.1
2023-05-11T16:34:40.170Z,98770.8
2023-05-11T16:40:15.574Z,98780.9
2023-05-11T16:45:55.943Z,98791.7
2023-05-11T16:51:32.153Z,98790.5
2023-05-11T16:57:07.725Z,98790.9
2023-05-11T17:02:44.004Z,98789.7
2023-05-11T17:08:21.154Z,98788.8
2023-05-11T17:13:55.965Z,98789.7
2023-05-11T17:19:30.992Z,98787.8
2023-05-11T17:25:05.762Z,98785.2
2023-05-11T17:30:49.953Z,98783.6
2023-05-11T17:36:27.536Z,98783.5
2023-05-11T17:42:03.590Z,98787.1
2023-05-11T17:47:39.280Z,98792.1
2023-05-11T17:53:16.292Z,98790.3
2023-05-11T17:58:51.359Z,98792.4
2023-05-11T18:04:27.316Z,98791
2023-05-11T18:10:02.848Z,98799.3
2023-05-11T18:15:38.821Z,98805.5
2023-05-11T18:21:14.934Z,98816.1
2023-05-11T18:26:50.431Z,98818.6
2023-05-11T18:32:25.469Z,98823.8
2023-05-11T18:38:01.240Z,98828.1
2023-05-11T18:43:47.478Z,98820.1
2023-05-11T18:49:29.590Z,98830.9
2023-05-11T18:55:05.725Z,98842
2023-05-11T19:01:05.782Z,98858
2023-05-11T19:06:40.868Z,98852.6
2023-05-11T19:12:46.539Z,98850.9
2023-05-11T19:18:36.389Z,98848.5
2023-05-11T19:24:12.454Z,98858.2
2023-05-11T19:29:49.471Z,98864.8
2023-05-11T19:35:25.601Z,98874.1
2023-05-11T19:41:01.461Z,98865.2
2023-05-11T19:46:45.428Z,98881.5
2023-05-11T19:52:22.714Z,98877.3
2023-05-11T19:58:06.122Z,98879.8
2023-05-11T20:04:04.512Z,98882.7
2023-05-11T20:09:39.159Z,98889.4
2023-05-11T20:15:15.086Z,98896.9
2023-05-11T20:20:59.150Z,98896.4
2023-05-11T20:26:38.873Z,98897.9
2023-05-11T20:32:33.110Z,98899
2023-05-11T20:38:08.439Z,98903.4
2023-05-11T20:43:44.078Z,98913.7
2023-05-11T20:49:39.794Z,98913.2
